createdAt,value
2023-01-27T00:01:32.362Z,2.80
2023-01-27T00:04:04.984Z,2.81
2023-01-27T00:06:40.252Z,2.80
2023-01-27T00:09:12.590Z,2.80
2023-01-27T00:12:02.266Z,2.81
2023-01-27T00:14:34.566Z,2.81
2023-01-27T00:17:06.736Z,2.78
2023-01-27T00:19:38.984Z,2.75
2023-01-27T00:22:30.065Z,2.76
2023-01-27T00:25:02.181Z,2.75
2023-01-27T00:27:36.556Z,2.74
2023-01-27T00:30:13.139Z,2.73
2023-01-27T00:33:04.076Z,2.68
2023-01-27T00:35:36.877Z,2.68
2023-01-27T00:38:09.192Z,2.75
2023-01-27T00:41:01.352Z,2.78
2023-01-27T00:43:33.489Z,2.79
2023-01-27T00:46:05.835Z,2.81
2023-01-27T00:48:38.318Z,2.82
2023-01-27T00:51:11.115Z,2.83
2023-01-27T00:53:43.711Z,2.83
2023-01-27T00:56:16.324Z,2.83
2023-01-27T00:58:48.732Z,2.84
2023-01-27T01:01:20.936Z,2.83
2023-01-27T01:03:53.135Z,2.80
2023-01-27T01:06:26.976Z,2.78
2023-01-27T01:09:00.425Z,2.75
2023-01-27T01:11:32.609Z,2.83
2023-01-27T01:14:04.730Z,2.84
2023-01-27T01:16:36.889Z,2.85
2023-01-27T01:19:09.335Z,2.86
2023-01-27T01:21:41.640Z,2.88
2023-01-27T01:24:14.075Z,2.89
2023-01-27T01:26:46.378Z,2.85
2023-01-27T01:29:18.589Z,2.84
2023-01-27T01:31:53.380Z,2.83
2023-01-27T01:34:25.747Z,2.80
2023-01-27T01:36:57.926Z,2.77
2023-01-27T01:39:30.514Z,2.75
2023-01-27T01:42:02.692Z,2.71
2023-01-27T01:44:35.194Z,2.72
2023-01-27T01:47:07.371Z,2.78
2023-01-27T01:49:42.192Z,2.79
2023-01-27T01:52:19.565Z,2.82
2023-01-27T01:54:56.836Z,2.84
2023-01-27T01:57:34.243Z,2.84
2023-01-27T02:00:10.751Z,2.83
2023-01-27T02:02:54.760Z,2.78
2023-01-27T02:05:30.771Z,2.76
2023-01-27T02:08:08.494Z,2.75
2023-01-27T02:10:40.731Z,2.73
2023-01-27T02:13:13.044Z,2.71
2023-01-27T02:15:45.391Z,2.71
2023-01-27T02:18:17.718Z,2.69
2023-01-27T02:20:51.893Z,2.73
2023-01-27T02:23:38.470Z,2.74
2023-01-27T02:26:17.399Z,2.74
2023-01-27T02:28:56.406Z,2.77
2023-01-27T02:31:28.728Z,2.81
2023-01-27T02:34:06.081Z,2.85
2023-01-27T02:36:43.579Z,2.87
2023-01-27T02:39:18.276Z,2.84
2023-01-27T02:41:53.997Z,2.83
2023-01-27T02:44:26.355Z,2.80
2023-01-27T02:46:58.642Z,2.78
2023-01-27T02:49:31.478Z,2.76
2023-01-27T02:52:03.900Z,2.74
2023-01-27T02:54:37.149Z,2.75
2023-01-27T02:57:09.931Z,2.79
2023-01-27T02:59:50.329Z,2.82
2023-01-27T03:02:30.542Z,2.81
2023-01-27T03:05:02.815Z,2.83
2023-01-27T03:07:35.395Z,2.85
2023-01-27T03:10:11.238Z,2.85
2023-01-27T03:12:45.096Z,2.81
2023-01-27T03:15:36.260Z,2.80
2023-01-27T03:18:17.447Z,2.78
2023-01-27T03:20:51.060Z,2.77
2023-01-27T03:23:23.306Z,2.74
2023-01-27T03:25:56.569Z,2.69
2023-01-27T03:28:28.945Z,2.70
2023-01-27T03:31:20.187Z,2.77
2023-01-27T03:34:02.056Z,2.78
2023-01-27T03:36:56.208Z,2.80
2023-01-27T03:39:48.046Z,2.79
2023-01-27T03:42:37.895Z,2.78
2023-01-27T03:45:30.235Z,2.74
2023-01-27T03:48:02.469Z,2.72
2023-01-27T03:50:38.523Z,2.74
2023-01-27T03:53:11.168Z,2.74
2023-01-27T03:55:43.403Z,2.73
2023-01-27T03:58:22.820Z,2.72
2023-01-27T04:00:56.604Z,2.77
2023-01-27T04:03:48.695Z,2.77
2023-01-27T04:06:41.023Z,2.79
2023-01-27T04:09:14.664Z,2.83
2023-01-27T04:11:56.325Z,2.85
2023-01-27T04:14:31.112Z,2.84
2023-01-27T04:17:05.111Z,2.80
2023-01-27T04:19:37.321Z,2.77
2023-01-27T04:22:11.345Z,2.75
2023-01-27T04:24:43.542Z,2.74
2023-01-27T04:27:18.957Z,2.71
2023-01-27T04:29:51.107Z,2.69
2023-01-27T04:32:23.279Z,2.67
2023-01-27T04:34:55.499Z,2.68
2023-01-27T04:37:27.767Z,2.76
2023-01-27T04:39:59.952Z,2.76
2023-01-27T04:42:32.401Z,2.77
2023-01-27T04:45:04.782Z,2.77
2023-01-27T04:47:37.001Z,2.79
2023-01-27T04:50:11.536Z,2.81
2023-01-27T04:52:45.333Z,2.77
2023-01-27T04:55:17.763Z,2.75
2023-01-27T04:57:49.948Z,2.73
2023-01-27T05:00:23.223Z,2.73
2023-01-27T05:02:55.740Z,2.70
2023-01-27T05:05:28.017Z,2.68
2023-01-27T05:08:03.304Z,2.68
2023-01-27T05:10:35.864Z,2.66
2023-01-27T05:13:08.136Z,2.72
2023-01-27T05:15:40.538Z,2.74
2023-01-27T05:18:12.744Z,2.74
2023-01-27T05:20:44.956Z,2.75
2023-01-27T05:23:35.017Z,2.78
2023-01-27T05:26:12.251Z,2.79
2023-01-27T05:28:47.093Z,2.75
2023-01-27T05:31:21.747Z,2.74
2023-01-27T05:33:55.736Z,2.71
2023-01-27T05:36:29.255Z,2.68
2023-01-27T05:39:01.959Z,2.67
2023-01-27T05:41:35.033Z,2.65
2023-01-27T05:44:07.645Z,2.68
2023-01-27T05:46:42.349Z,2.76
2023-01-27T05:49:14.721Z,2.76
2023-01-27T05:51:46.926Z,2.77
2023-01-27T05:54:19.138Z,2.79
2023-01-27T05:56:51.428Z,2.80
2023-01-27T05:59:24.366Z,2.85
2023-01-27T06:01:56.735Z,2.86
2023-01-27T06:04:29.548Z,2.81
2023-01-27T06:07:02.032Z,2.78
2023-01-27T06:09:34.271Z,2.77
2023-01-27T06:12:06.872Z,2.72
2023-01-27T06:14:39.047Z,2.69
2023-01-27T06:17:11.169Z,2.64
2023-01-27T06:19:43.481Z,2.58
2023-01-27T06:22:15.699Z,2.56
2023-01-27T06:24:47.859Z,2.62
2023-01-27T06:27:20.047Z,2.64
2023-01-27T06:29:52.210Z,2.64
2023-01-27T06:32:24.327Z,2.64
2023-01-27T06:34:56.492Z,2.67
2023-01-27T06:37:31.346Z,2.67
2023-01-27T06:40:03.560Z,2.62
2023-01-27T06:42:42.935Z,2.62
2023-01-27T06:45:16.171Z,2.61
2023-01-27T06:47:54.795Z,2.59
2023-01-27T06:50:28.229Z,2.54
2023-01-27T06:53:05.167Z,2.51
2023-01-27T06:55:41.751Z,2.48
2023-01-27T06:58:16.020Z,2.49
2023-01-27T07:00:48.420Z,2.57
2023-01-27T07:03:21.000Z,2.59
2023-01-27T07:05:53.903Z,2.59
2023-01-27T07:08:26.198Z,2.62
2023-01-27T07:10:58.607Z,2.67
2023-01-27T07:13:30.828Z,2.69
2023-01-27T07:16:03.033Z,2.72
2023-01-27T07:18:35.486Z,2.70
2023-01-27T07:21:08.608Z,2.70
2023-01-27T07:23:40.982Z,2.70
2023-01-27T07:26:24.594Z,2.70
2023-01-27T07:28:58.370Z,2.70
2023-01-27T07:31:30.850Z,2.68
2023-01-27T07:34:03.136Z,2.66
2023-01-27T07:36:35.305Z,2.65
2023-01-27T07:39:07.535Z,2.73
2023-01-27T07:41:39.738Z,2.74
2023-01-27T07:44:12.927Z,2.75
2023-01-27T07:46:45.093Z,2.75
2023-01-27T07:49:17.304Z,2.78
2023-01-27T07:51:49.599Z,2.80
2023-01-27T07:54:21.910Z,2.80
2023-01-27T07:56:54.039Z,2.80
2023-01-27T07:59:26.385Z,2.79
2023-01-27T08:01:58.622Z,2.80
2023-01-27T08:04:37.398Z,2.79
2023-01-27T08:07:12.311Z,2.78
2023-01-27T08:09:44.530Z,2.74
2023-01-27T08:12:16.822Z,2.73
2023-01-27T08:14:48.931Z,2.78
2023-01-27T08:17:21.184Z,2.80
2023-01-27T08:19:53.446Z,2.84
2023-01-27T08:22:25.774Z,2.87
2023-01-27T08:24:58.022Z,2.88
2023-01-27T08:27:30.216Z,2.85
2023-01-27T08:30:02.375Z,2.84
2023-01-27T08:32:35.144Z,2.83
2023-01-27T08:35:08.033Z,2.83
2023-01-27T08:37:40.230Z,2.81
2023-01-27T08:40:17.341Z,2.81
2023-01-27T08:42:51.084Z,2.79
2023-01-27T08:45:23.490Z,2.79
2023-01-27T08:47:55.698Z,2.85
2023-01-27T08:50:27.993Z,2.88
2023-01-27T08:53:00.905Z,2.89
2023-01-27T08:55:34.329Z,2.91
2023-01-27T08:58:06.545Z,2.91
2023-01-27T09:00:38.799Z,2.92
2023-01-27T09:03:11.051Z,2.91
2023-01-27T09:05:43.407Z,2.90
2023-01-27T09:08:16.297Z,2.89
2023-01-27T09:10:48.479Z,2.89
2023-01-27T09:13:22.506Z,2.90
2023-01-27T09:15:55.645Z,2.90
2023-01-27T09:18:27.990Z,2.85
2023-01-27T09:21:03.637Z,2.85
2023-01-27T09:23:36.276Z,2.91
2023-01-27T09:26:08.665Z,2.92
2023-01-27T09:28:40.858Z,2.95
2023-01-27T09:31:13.101Z,2.97
2023-01-27T09:33:45.681Z,2.97
2023-01-27T09:36:21.551Z,2.99
2023-01-27T09:38:59.094Z,2.95
2023-01-27T09:41:54.556Z,2.95
2023-01-27T09:44:44.998Z,2.97
2023-01-27T09:47:34.187Z,2.95
2023-01-27T09:50:31.904Z,2.94
2023-01-27T09:53:19.694Z,2.92
2023-01-27T09:55:59.391Z,2.91
2023-01-27T09:58:41.617Z,2.94
2023-01-27T10:01:24.501Z,3.05
2023-01-27T10:04:18.915Z,3.08
2023-01-27T10:07:11.078Z,3.12
2023-01-27T10:10:04.432Z,3.15
2023-01-27T10:12:56.064Z,3.20
2023-01-27T10:15:41.575Z,3.24
2023-01-27T10:18:19.233Z,3.25
2023-01-27T10:21:01.406Z,3.22
2023-01-27T10:23:45.859Z,3.21
2023-01-27T10:26:24.988Z,3.18
2023-01-27T10:29:04.971Z,3.14
2023-01-27T10:31:40.962Z,3.10
2023-01-27T10:34:26.044Z,3.07
2023-01-27T10:37:10.098Z,3.01
2023-01-27T10:39:50.151Z,2.96
2023-01-27T10:42:33.125Z,2.92
2023-01-27T10:45:20.190Z,2.99
2023-01-27T10:48:06.215Z,3.02
2023-01-27T10:50:43.224Z,3.03
2023-01-27T10:53:21.284Z,3.04
2023-01-27T10:56:02.534Z,3.08
2023-01-27T10:58:50.038Z,3.09
2023-01-27T11:01:26.990Z,3.05
2023-01-27T11:04:03.832Z,3.05
2023-01-27T11:06:40.498Z,3.04
2023-01-27T11:09:24.274Z,3.01
2023-01-27T11:11:59.487Z,2.97
2023-01-27T11:14:34.415Z,2.94
2023-01-27T11:17:18.789Z,2.90
2023-01-27T11:20:00.723Z,2.94
2023-01-27T11:22:43.870Z,3.03
2023-01-27T11:25:30.500Z,3.05
2023-01-27T11:28:15.981Z,3.07
2023-01-27T11:30:53.824Z,3.12
2023-01-27T11:33:31.710Z,3.18
2023-01-27T11:36:03.823Z,3.19
2023-01-27T11:38:36.655Z,3.19
2023-01-27T11:41:09.053Z,3.20
2023-01-27T11:43:41.939Z,3.21
2023-01-27T11:46:19.973Z,3.20
2023-01-27T11:48:55.034Z,3.16
2023-01-27T11:51:33.672Z,3.11
2023-01-27T11:54:14.195Z,3.05
2023-01-27T11:56:49.199Z,3.01
2023-01-27T11:59:24.061Z,2.98
2023-01-27T12:02:00.381Z,3.00
2023-01-27T12:04:49.986Z,2.98
2023-01-27T12:07:29.086Z,2.98
2023-01-27T12:10:01.328Z,2.98
2023-01-27T12:12:38.325Z,3.00
2023-01-27T12:15:18.072Z,3.05
2023-01-27T12:17:53.802Z,3.09
2023-01-27T12:20:35.805Z,3.07
2023-01-27T12:23:21.144Z,3.07
2023-01-27T12:25:54.463Z,3.07
2023-01-27T12:28:33.442Z,3.05
2023-01-27T12:31:11.934Z,3.03
2023-01-27T12:33:53.298Z,3.00
2023-01-27T12:36:29.201Z,2.95
2023-01-27T12:39:04.072Z,2.97
2023-01-27T12:41:39.468Z,3.03
2023-01-27T12:44:19.657Z,3.00
2023-01-27T12:47:02.882Z,3.00
2023-01-27T12:49:37.997Z,3.03
2023-01-27T12:52:20.342Z,3.06
2023-01-27T12:54:54.249Z,3.06
2023-01-27T12:57:30.077Z,3.00
2023-01-27T13:00:02.414Z,2.95
2023-01-27T13:02:36.326Z,2.94
2023-01-27T13:05:17.704Z,2.94
2023-01-27T13:07:54.348Z,2.95
2023-01-27T13:10:28.090Z,2.95
2023-01-27T13:13:02.022Z,2.90
2023-01-27T13:15:34.674Z,2.83
2023-01-27T13:18:21.863Z,2.82
2023-01-27T13:21:00.479Z,2.88
2023-01-27T13:23:38.694Z,2.86
2023-01-27T13:26:17.055Z,2.85
2023-01-27T13:28:55.150Z,2.86
2023-01-27T13:31:40.430Z,2.89
2023-01-27T13:34:23.937Z,2.92
2023-01-27T13:37:02.702Z,2.91
2023-01-27T13:39:49.749Z,2.92
2023-01-27T13:42:30.141Z,2.91
2023-01-27T13:45:07.424Z,2.88
2023-01-27T13:47:48.277Z,2.85
2023-01-27T13:50:26.369Z,2.85
2023-01-27T13:53:01.022Z,2.82
2023-01-27T13:55:48.529Z,2.78
2023-01-27T13:58:31.844Z,2.86
2023-01-27T14:01:13.276Z,2.87
2023-01-27T14:04:01.821Z,2.87
2023-01-27T14:06:47.200Z,2.89
2023-01-27T14:09:23.961Z,2.94
2023-01-27T14:12:04.811Z,2.96
2023-01-27T14:14:58.225Z,2.98
2023-01-27T14:17:40.783Z,2.99
2023-01-27T14:20:30.111Z,2.97
2023-01-27T14:23:12.481Z,2.96
2023-01-27T14:25:56.112Z,2.91
2023-01-27T14:28:38.911Z,2.87
2023-01-27T14:31:16.300Z,2.84
2023-01-27T14:34:02.243Z,2.79
2023-01-27T14:36:41.469Z,2.73
2023-01-27T14:39:21.495Z,2.73
2023-01-27T14:42:00.958Z,2.80
2023-01-27T14:45:01.058Z,2.81
2023-01-27T14:47:43.830Z,2.84
2023-01-27T14:50:25.110Z,2.86
2023-01-27T14:53:10.435Z,2.88
2023-01-27T14:55:51.371Z,2.89
2023-01-27T14:58:44.326Z,2.87
2023-01-27T15:01:28.193Z,2.85
2023-01-27T15:04:38.588Z,2.81
2023-01-27T15:07:17.301Z,2.77
2023-01-27T15:10:06.145Z,2.76
2023-01-27T15:12:54.209Z,2.75
2023-01-27T15:15:44.698Z,2.73
2023-01-27T15:18:30.050Z,2.77
2023-01-27T15:21:10.663Z,2.75
2023-01-27T15:24:02.210Z,2.73
2023-01-27T15:26:36.807Z,2.73
2023-01-27T15:29:13.795Z,2.75
2023-01-27T15:32:06.154Z,2.76
2023-01-27T15:34:38.583Z,2.77
2023-01-27T15:37:24.154Z,2.77
2023-01-27T15:40:05.514Z,2.77
2023-01-27T15:42:53.589Z,2.75
2023-01-27T15:45:31.869Z,2.73
2023-01-27T15:48:08.001Z,2.70
2023-01-27T15:50:47.438Z,2.67
2023-01-27T15:53:24.891Z,2.63
2023-01-27T15:56:00.299Z,2.63
2023-01-27T15:58:40.005Z,2.72
2023-01-27T16:01:25.136Z,2.73
2023-01-27T16:04:08.381Z,2.73
2023-01-27T16:06:48.845Z,2.75
2023-01-27T16:09:29.537Z,2.78
2023-01-27T16:12:04.929Z,2.81
2023-01-27T16:14:42.965Z,2.78
2023-01-27T16:17:25.085Z,2.76
2023-01-27T16:20:06.582Z,2.74
2023-01-27T16:22:44.174Z,2.73
2023-01-27T16:25:26.777Z,2.70
2023-01-27T16:28:05.141Z,2.67
2023-01-27T16:30:42.539Z,2.66
2023-01-27T16:33:23.578Z,2.65
2023-01-27T16:35:59.981Z,2.68
2023-01-27T16:38:34.216Z,2.69
2023-01-27T16:41:17.322Z,2.70
2023-01-27T16:43:55.023Z,2.72
2023-01-27T16:46:36.079Z,2.68
2023-01-27T16:49:16.706Z,2.65
2023-01-27T16:51:55.209Z,2.62
2023-01-27T16:54:31.221Z,2.61
2023-01-27T16:57:05.882Z,2.58
2023-01-27T16:59:41.674Z,2.53
2023-01-27T17:02:23.509Z,2.47
2023-01-27T17:04:59.199Z,2.44
2023-01-27T17:07:32.828Z,2.44
2023-01-27T17:10:18.907Z,2.47
2023-01-27T17:12:56.501Z,2.44
2023-01-27T17:15:36.570Z,2.44
2023-01-27T17:18:12.413Z,2.45
2023-01-27T17:20:48.961Z,2.47
2023-01-27T17:23:30.615Z,2.46
2023-01-27T17:26:07.909Z,2.43
2023-01-27T17:28:41.580Z,2.35
2023-01-27T17:31:20.267Z,2.30
2023-01-27T17:33:59.802Z,2.25
2023-01-27T17:36:32.370Z,2.17
2023-01-27T17:39:04.696Z,2.11
2023-01-27T17:41:40.614Z,2.10
2023-01-27T17:44:16.127Z,2.12
2023-01-27T17:46:48.705Z,2.14
2023-01-27T17:49:22.184Z,2.20
2023-01-27T17:51:55.907Z,2.19
2023-01-27T17:54:31.303Z,2.20
2023-01-27T17:57:09.535Z,2.22
2023-01-27T17:59:46.742Z,2.24
2023-01-27T18:02:26.551Z,2.21
2023-01-27T18:05:03.706Z,2.19
2023-01-27T18:07:36.015Z,2.20
2023-01-27T18:10:25.907Z,2.19
2023-01-27T18:12:58.927Z,2.17
2023-01-27T18:15:42.692Z,2.10
2023-01-27T18:18:26.415Z,2.03
2023-01-27T18:21:15.323Z,2.01
2023-01-27T18:23:49.448Z,1.93
2023-01-27T18:26:25.324Z,1.86
2023-01-27T18:29:00.369Z,1.81
2023-01-27T18:31:32.570Z,1.81
2023-01-27T18:34:22.309Z,1.89
2023-01-27T18:36:57.798Z,1.91
2023-01-27T18:39:37.592Z,1.94
2023-01-27T18:42:17.170Z,1.99
2023-01-27T18:44:51.716Z,2.05
2023-01-27T18:47:35.817Z,2.07
2023-01-27T18:50:19.530Z,2.05
2023-01-27T18:52:52.896Z,2.06
2023-01-27T18:55:27.580Z,2.05
2023-01-27T18:58:01.278Z,2.02
2023-01-27T19:00:38.463Z,1.98
2023-01-27T19:03:18.031Z,1.96
2023-01-27T19:05:51.096Z,1.92
2023-01-27T19:08:26.014Z,1.90
2023-01-27T19:10:58.310Z,1.89
2023-01-27T19:13:30.431Z,1.95
2023-01-27T19:16:02.716Z,1.99
2023-01-27T19:18:38.605Z,2.02
2023-01-27T19:21:14.081Z,2.01
2023-01-27T19:23:48.378Z,2.00
2023-01-27T19:26:22.976Z,1.97
2023-01-27T19:28:56.502Z,1.97
2023-01-27T19:31:28.749Z,1.96
2023-01-27T19:34:01.072Z,1.93
2023-01-27T19:36:36.254Z,1.88
2023-01-27T19:39:15.475Z,1.84
2023-01-27T19:41:48.200Z,1.81
2023-01-27T19:44:20.374Z,1.78
2023-01-27T19:46:52.617Z,1.79
2023-01-27T19:49:24.921Z,1.91
2023-01-27T19:51:58.052Z,1.94
2023-01-27T19:54:30.610Z,1.96
2023-01-27T19:57:03.020Z,1.98
2023-01-27T19:59:35.528Z,2.03
2023-01-27T20:02:07.976Z,2.05
2023-01-27T20:04:40.482Z,2.06
2023-01-27T20:07:14.843Z,2.11
2023-01-27T20:09:47.225Z,2.16
2023-01-27T20:12:20.287Z,2.20
2023-01-27T20:14:52.703Z,2.25
2023-01-27T20:17:25.050Z,2.29
2023-01-27T20:19:57.461Z,2.29
2023-01-27T20:22:29.769Z,2.26
2023-01-27T20:25:02.533Z,2.25
2023-01-27T20:27:35.070Z,2.29
2023-01-27T20:30:09.678Z,2.34
2023-01-27T20:32:40.977Z,2.36
2023-01-27T20:35:19.219Z,2.36
2023-01-27T20:37:58.193Z,2.36
2023-01-27T20:40:33.021Z,2.41
2023-01-27T20:43:05.602Z,2.43
2023-01-27T20:45:39.096Z,2.46
2023-01-27T20:48:14.220Z,2.48
2023-01-27T20:50:47.184Z,2.49
2023-01-27T20:53:34.678Z,2.49
2023-01-27T20:57:23.255Z,2.54
2023-01-27T21:04:55.925Z,2.47
2023-01-27T21:08:00.123Z,2.50
2023-01-27T21:10:40.523Z,2.52
2023-01-27T21:13:13.140Z,2.59
2023-01-27T21:15:51.348Z,2.61
2023-01-27T21:18:23.943Z,2.61
2023-01-27T21:20:59.632Z,2.63
2023-01-27T21:23:33.909Z,2.62
2023-01-27T21:26:09.619Z,2.60
2023-01-27T21:28:42.275Z,2.57
2023-01-27T21:31:17.647Z,2.57
2023-01-27T21:33:50.572Z,2.61
2023-01-27T21:36:24.159Z,2.63
2023-01-27T21:38:57.084Z,2.61
2023-01-27T21:41:47.681Z,2.61
2023-01-27T21:44:39.659Z,2.62
2023-01-27T21:47:14.163Z,2.61
2023-01-27T21:50:04.509Z,2.57
2023-01-27T21:52:41.938Z,2.58
2023-01-27T21:55:16.993Z,2.56
2023-01-27T21:58:07.200Z,2.54
2023-01-27T22:05:32.375Z,2.49
2023-01-27T22:08:12.359Z,2.49
2023-01-27T22:15:19.781Z,2.49
2023-01-27T22:17:52.274Z,2.48
2023-01-27T22:20:24.586Z,2.48
2023-01-27T22:22:57.334Z,2.48
2023-01-27T22:25:29.699Z,2.46
2023-01-27T22:28:02.162Z,2.47
2023-01-27T22:30:34.690Z,2.47
2023-01-27T22:33:07.191Z,2.46
2023-01-27T22:35:40.521Z,2.46
2023-01-27T22:38:13.098Z,2.46
2023-01-27T22:40:45.512Z,2.45
2023-01-27T22:43:17.917Z,2.45
2023-01-27T22:45:50.402Z,2.44
2023-01-27T22:48:22.860Z,2.44
2023-01-27T22:50:55.206Z,2.47
2023-01-27T22:53:27.713Z,2.47
2023-01-27T22:56:01.383Z,2.49
2023-01-27T22:58:34.311Z,2.58
2023-01-27T23:01:09.173Z,2.66
2023-01-27T23:03:41.587Z,2.70
2023-01-27T23:06:14.449Z,2.68
2023-01-27T23:08:46.935Z,2.66
2023-01-27T23:11:19.243Z,2.63
2023-01-27T23:13:51.803Z,2.62
2023-01-27T23:16:24.635Z,2.58
2023-01-27T23:18:57.426Z,2.56
2023-01-27T23:21:31.792Z,2.54
2023-01-27T23:24:07.461Z,2.52
2023-01-27T23:26:40.194Z,2.52
2023-01-27T23:29:24.169Z,2.51
2023-01-27T23:31:58.407Z,2.51
2023-01-27T23:34:31.335Z,2.53
2023-01-27T23:37:04.570Z,2.50
2023-01-27T23:39:37.099Z,2.48
2023-01-27T23:42:11.096Z,2.48
2023-01-27T23:44:43.676Z,2.47
2023-01-27T23:47:16.908Z,2.48
2023-01-27T23:49:49.312Z,2.49
2023-01-27T23:52:21.922Z,2.47
2023-01-27T23:54:54.507Z,2.45
2023-01-27T23:57:26.915Z,2.43
2023-01-27T23:59:59.329Z,2.45
